Time;durP1;ratioP1;P1;durP2;ratioP2;P2;SDS_P1;SDS_P2;PMS_P1;PMS_P2;Temp;Humidity;BMP_temperature;BMP_pressure;BME280_temperature;BME280_humidity;BME280_pressure;Samples;Min_cycle;Max_cycle;Signal;HPM_P1;HPM_P2
2020/12/18 00:01:10;;;;;;;12.90;8.57;;;6.50;99.90;;;;;;5078418;28;20201;-84
2020/12/18 00:03:37;;;;;;;11.90;9.10;;;6.70;99.90;;;;;;5077060;28;20226;-83
2020/12/18 00:06:03;;;;;;;13.82;9.43;;;6.80;99.90;;;;;;5079530;28;20237;-83
2020/12/18 00:08:30;;;;;;;12.00;8.60;;;6.70;99.90;;;;;;5079983;28;20221;-83
2020/12/18 00:10:57;;;;;;;13.35;8.43;;;6.80;99.90;;;;;;5080825;28;20213;-85
2020/12/18 00:13:23;;;;;;;15.25;9.93;;;6.80;99.90;;;;;;5080031;28;20289;-85
2020/12/18 00:15:53;;;;;;;12.40;9.63;;;6.60;99.90;;;;;;5081542;28;20226;-84
2020/12/18 00:18:19;;;;;;;12.60;8.93;;;6.60;99.90;;;;;;5081288;28;20216;-84
2020/12/18 00:20:46;;;;;;;13.00;8.88;;;6.50;99.90;;;;;;5081050;28;20217;-85
2020/12/18 00:23:12;;;;;;;15.13;9.88;;;6.50;99.90;;;;;;5079756;28;20277;-84
2020/12/18 00:25:39;;;;;;;15.38;9.20;;;6.40;99.90;;;;;;5080790;28;20241;-85
2020/12/18 00:28:06;;;;;;;15.82;10.77;;;6.50;99.90;;;;;;5080672;28;20221;-85
2020/12/18 00:30:32;;;;;;;11.57;9.23;;;6.50;99.90;;;;;;5080378;28;20202;-84
2020/12/18 00:32:59;;;;;;;14.63;8.88;;;6.50;99.90;;;;;;5081067;28;20255;-83
2020/12/18 00:35:26;;;;;;;14.50;9.40;;;6.50;99.90;;;;;;5080671;28;20264;-84
2020/12/18 00:37:53;;;;;;;14.18;9.05;;;6.50;99.90;;;;;;5080224;28;20268;-83
2020/12/18 00:40:19;;;;;;;14.93;9.55;;;6.60;99.90;;;;;;5079970;28;20672;-84
2020/12/18 00:42:46;;;;;;;13.32;9.13;;;6.60;99.90;;;;;;5080461;28;20286;-83
2020/12/18 00:45:13;;;;;;;13.38;10.38;;;6.60;99.90;;;;;;5081004;28;20209;-84
2020/12/18 00:47:40;;;;;;;13.63;8.85;;;6.30;99.90;;;;;;5078195;28;20719;-82
2020/12/18 00:50:07;;;;;;;15.80;10.25;;;6.40;99.90;;;;;;5079412;28;20209;-84
2020/12/18 00:52:34;;;;;;;14.00;9.52;;;6.30;99.90;;;;;;5075473;28;20194;-83
2020/12/18 00:55:00;;;;;;;14.27;9.15;;;6.40;99.90;;;;;;5075389;28;20255;-84
2020/12/18 00:57:27;;;;;;;14.88;10.70;;;6.30;99.90;;;;;;5077987;28;20249;-82
2020/12/18 00:59:54;;;;;;;14.98;8.82;;;6.20;99.90;;;;;;5079964;28;20262;-82
2020/12/18 01:02:20;;;;;;;14.82;10.43;;;6.10;99.90;;;;;;5073962;28;20198;-83
2020/12/18 01:04:47;;;;;;;14.93;9.25;;;6.10;99.90;;;;;;5067442;28;20229;-84
2020/12/18 01:07:14;;;;;;;16.13;11.48;;;6.20;99.90;;;;;;5066185;28;20233;-84
2020/12/18 01:09:40;;;;;;;14.07;10.52;;;6.10;99.90;;;;;;5074080;28;20202;-83
2020/12/18 01:12:11;;;;;;;12.55;9.25;;;5.90;99.90;;;;;;5077209;28;20220;-83
2020/12/18 01:14:38;;;;;;;14.40;9.82;;;6.00;99.90;;;;;;5087890;28;20198;-82
2020/12/18 01:17:05;;;;;;;14.82;9.27;;;6.20;99.90;;;;;;5086108;28;20221;-84
2020/12/18 01:19:31;;;;;;;14.60;10.40;;;6.20;99.90;;;;;;5077271;28;20259;-83
2020/12/18 01:21:58;;;;;;;14.88;10.15;;;6.00;99.90;;;;;;5065877;28;20202;-83
2020/12/18 01:24:25;;;;;;;16.08;10.13;;;5.90;99.90;;;;;;5065219;28;20610;-84
2020/12/18 01:26:52;;;;;;;16.17;10.57;;;6.20;99.90;;;;;;5076009;28;20236;-83
2020/12/18 01:29:18;;;;;;;17.77;10.32;;;6.00;99.90;;;;;;5078134;28;20206;-84
2020/12/18 01:31:45;;;;;;;16.88;10.43;;;6.00;99.90;;;;;;5078831;28;20566;-85
2020/12/18 01:34:11;;;;;;;14.55;10.45;;;6.10;99.90;;;;;;5078046;28;20270;-84
2020/12/18 01:36:38;;;;;;;12.55;9.65;;;6.30;99.90;;;;;;5077694;28;20264;-83
2020/12/18 01:39:07;;;;;;;13.07;9.95;;;6.30;99.90;;;;;;5077137;28;20293;-85
2020/12/18 01:41:34;;;;;;;13.35;8.48;;;6.30;99.90;;;;;;5077863;28;20252;-85
2020/12/18 01:44:01;;;;;;;11.57;9.50;;;6.10;99.90;;;;;;5081711;28;20218;-84
2020/12/18 01:46:30;;;;;;;14.15;9.80;;;6.30;99.90;;;;;;5082101;28;20742;-84
2020/12/18 01:48:58;;;;;;;14.32;9.68;;;6.20;99.90;;;;;;5082407;28;20209;-84
2020/12/18 01:51:25;;;;;;;15.15;9.45;;;6.50;99.90;;;;;;5081960;28;20198;-84
2020/12/18 01:53:52;;;;;;;12.88;9.50;;;6.40;99.90;;;;;;5085507;28;20209;-85
2020/12/18 01:56:21;;;;;;;12.38;9.50;;;6.50;99.90;;;;;;5081599;28;20221;-84
2020/12/18 01:58:51;;;;;;;12.73;8.43;;;6.60;99.90;;;;;;5060366;28;20218;-84
2020/12/18 02:01:18;;;;;;;15.25;8.63;;;6.50;99.90;;;;;;5066093;28;20226;-84
2020/12/18 02:03:44;;;;;;;10.50;8.43;;;6.40;99.90;;;;;;5080850;28;20222;-84
2020/12/18 02:06:15;;;;;;;12.32;9.45;;;6.50;99.90;;;;;;5080250;28;20221;-84
2020/12/18 02:08:43;;;;;;;19.95;8.98;;;6.50;99.90;;;;;;5079168;28;20304;-84
2020/12/18 02:11:12;;;;;;;13.85;9.80;;;6.50;99.90;;;;;;5080622;28;20238;-84
2020/12/18 02:13:38;;;;;;;13.90;9.00;;;6.40;99.90;;;;;;5069699;28;20198;-84
2020/12/18 02:16:06;;;;;;;16.17;9.80;;;6.50;99.90;;;;;;5068735;28;20680;-83
2020/12/18 02:18:33;;;;;;;13.00;9.02;;;6.30;99.90;;;;;;5077908;28;20202;-83
2020/12/18 02:21:03;;;;;;;11.80;9.25;;;6.30;99.90;;;;;;5077556;28;20610;-83
2020/12/18 02:23:30;;;;;;;13.93;9.27;;;6.20;99.90;;;;;;5079155;28;20317;-83
2020/12/18 02:26:06;;;;;;;11.18;8.52;;;6.40;99.90;;;;;;5081213;28;20278;-84
2020/12/18 02:28:35;;;;;;;12.65;8.52;;;6.30;99.90;;;;;;5078999;28;20213;-84
2020/12/18 02:31:02;;;;;;;13.20;9.20;;;6.30;99.90;;;;;;5087143;28;20206;-83
2020/12/18 02:33:30;;;;;;;11.02;9.07;;;6.30;99.90;;;;;;5088456;28;20206;-84
2020/12/18 02:35:57;;;;;;;12.50;8.23;;;6.10;99.90;;;;;;5087732;28;20295;-84
2020/12/18 02:38:24;;;;;;;13.15;9.00;;;6.10;99.90;;;;;;5088586;28;20263;-84
2020/12/18 02:40:50;;;;;;;14.10;9.32;;;6.30;99.90;;;;;;5090607;28;20211;-83
2020/12/18 02:43:18;;;;;;;15.15;10.38;;;6.20;99.90;;;;;;5090034;28;20237;-83
2020/12/18 02:45:44;;;;;;;12.90;9.77;;;6.20;99.90;;;;;;5089133;28;20221;-84
2020/12/18 02:48:11;;;;;;;13.15;9.35;;;6.20;99.90;;;;;;5088707;28;20293;-84
2020/12/18 02:50:38;;;;;;;12.52;8.55;;;6.00;99.90;;;;;;5088878;28;20209;-84
2020/12/18 02:53:12;;;;;;;18.48;10.13;;;6.20;99.90;;;;;;5089217;28;20210;-82
2020/12/18 02:55:39;;;;;;;15.90;10.02;;;6.10;99.90;;;;;;5083202;28;20221;-83
2020/12/18 02:58:06;;;;;;;13.45;9.18;;;6.20;99.90;;;;;;5084805;28;20220;-81
2020/12/18 03:00:34;;;;;;;11.43;8.70;;;6.20;99.90;;;;;;5084747;28;20246;-82
2020/12/18 03:03:01;;;;;;;12.77;9.15;;;6.30;99.90;;;;;;5084835;28;20645;-84
2020/12/18 03:05:28;;;;;;;12.40;9.32;;;6.50;99.90;;;;;;5079998;28;20671;-83
2020/12/18 03:07:55;;;;;;;14.32;9.07;;;6.20;99.90;;;;;;5084264;28;20209;-82
2020/12/18 03:10:21;;;;;;;12.95;8.52;;;6.00;99.90;;;;;;5082459;28;20210;-85
2020/12/18 03:12:48;;;;;;;15.18;8.57;;;6.00;99.90;;;;;;5068350;28;20205;-82
2020/12/18 03:15:15;;;;;;;11.73;9.43;;;6.10;99.90;;;;;;5081837;28;20209;-81
2020/12/18 03:17:42;;;;;;;12.60;9.40;;;6.20;99.90;;;;;;5077683;28;20211;-83
2020/12/18 03:20:09;;;;;;;13.00;9.07;;;6.20;99.90;;;;;;5065591;28;20206;-82
2020/12/18 03:22:36;;;;;;;12.23;9.55;;;6.30;99.90;;;;;;5078475;28;20209;-84
2020/12/18 03:25:03;;;;;;;14.88;9.65;;;6.30;99.90;;;;;;5082133;28;20665;-84
2020/12/18 03:27:29;;;;;;;13.73;9.30;;;6.30;99.90;;;;;;5078691;28;20225;-84
2020/12/18 03:29:56;;;;;;;13.02;9.27;;;6.20;99.90;;;;;;5078791;28;20221;-84
2020/12/18 03:32:23;;;;;;;14.10;10.00;;;6.30;99.90;;;;;;5079326;28;20201;-84
2020/12/18 03:34:50;;;;;;;19.55;9.52;;;6.60;99.90;;;;;;5079056;28;20199;-84
2020/12/18 03:37:17;;;;;;;13.77;9.73;;;6.50;99.90;;;;;;5078249;28;20317;-84
2020/12/18 03:39:44;;;;;;;14.18;9.32;;;6.60;99.90;;;;;;5078285;28;20271;-83
2020/12/18 03:42:10;;;;;;;14.18;10.63;;;6.70;99.90;;;;;;5078541;28;20217;-84
2020/12/18 03:44:37;;;;;;;10.68;8.80;;;6.70;99.90;;;;;;5077663;28;20229;-84
2020/12/18 03:47:03;;;;;;;13.20;10.00;;;6.60;99.90;;;;;;5075321;28;20218;-84
2020/12/18 03:49:30;;;;;;;15.27;10.10;;;6.80;99.90;;;;;;5073787;28;20209;-83
2020/12/18 03:51:57;;;;;;;14.50;9.93;;;7.00;99.90;;;;;;5073125;28;20221;-82
2020/12/18 03:54:24;;;;;;;13.60;9.95;;;7.00;99.90;;;;;;5074459;28;20190;-83
2020/12/18 03:56:50;;;;;;;13.82;9.05;;;6.90;99.90;;;;;;5078373;28;20222;-83
2020/12/18 03:59:17;;;;;;;14.70;9.60;;;6.90;99.90;;;;;;5077259;28;20194;-84
2020/12/18 04:01:43;;;;;;;12.13;8.93;;;6.90;99.90;;;;;;5078047;28;20589;-84
2020/12/18 04:04:10;;;;;;;14.80;9.13;;;7.10;99.90;;;;;;5077309;28;20226;-84
2020/12/18 04:06:36;;;;;;;11.35;9.07;;;7.30;99.90;;;;;;5076388;28;20229;-83
2020/12/18 04:09:04;;;;;;;13.60;9.68;;;7.00;99.90;;;;;;5076677;28;20644;-84
2020/12/18 04:11:30;;;;;;;13.65;10.27;;;7.10;99.90;;;;;;5078049;28;20201;-84
2020/12/18 04:13:57;;;;;;;12.00;9.20;;;7.00;99.90;;;;;;5069761;28;20669;-83
2020/12/18 04:16:24;;;;;;;14.05;8.88;;;7.00;99.90;;;;;;5083032;28;20595;-83
2020/12/18 04:18:51;;;;;;;15.20;10.02;;;7.00;99.90;;;;;;5082484;28;20223;-83
2020/12/18 04:21:17;;;;;;;13.80;9.70;;;6.80;99.90;;;;;;5077329;28;20201;-84
2020/12/18 04:23:44;;;;;;;12.32;8.93;;;7.10;99.90;;;;;;5076033;28;20217;-84
2020/12/18 04:26:11;;;;;;;13.73;8.98;;;7.10;99.90;;;;;;5078977;28;20305;-83
2020/12/18 04:28:38;;;;;;;12.85;9.50;;;6.90;99.90;;;;;;5073643;28;20231;-83
2020/12/18 04:31:05;;;;;;;13.15;9.63;;;6.90;99.90;;;;;;5074113;28;20218;-83
2020/12/18 04:33:31;;;;;;;11.40;9.38;;;7.10;99.90;;;;;;5073404;28;20197;-83
2020/12/18 04:35:57;;;;;;;13.35;10.07;;;7.00;99.90;;;;;;5073630;28;20233;-84
2020/12/18 04:38:24;;;;;;;15.57;9.35;;;7.00;99.90;;;;;;5073704;28;20199;-83
2020/12/18 04:40:51;;;;;;;14.80;10.20;;;7.20;99.90;;;;;;5073560;28;20210;-83
2020/12/18 04:43:19;;;;;;;14.68;9.63;;;7.10;99.90;;;;;;5073757;28;20228;-84
2020/12/18 04:45:46;;;;;;;13.30;9.65;;;7.00;99.90;;;;;;5074861;28;20237;-84
2020/12/18 04:48:16;;;;;;;15.38;9.25;;;7.10;99.90;;;;;;5074905;28;20228;-84
2020/12/18 04:50:47;;;;;;;14.10;9.25;;;7.00;99.90;;;;;;5076804;28;20210;-84
2020/12/18 04:53:14;;;;;;;14.10;9.82;;;7.20;99.90;;;;;;5076361;28;20205;-84
2020/12/18 04:55:46;;;;;;;17.60;9.75;;;7.00;99.90;;;;;;5075259;28;20824;-84
2020/12/18 04:58:15;;;;;;;13.73;9.60;;;6.90;99.90;;;;;;5074661;28;20201;-84
2020/12/18 05:00:45;;;;;;;13.68;9.13;;;7.00;99.90;;;;;;5076155;28;20229;-84
2020/12/18 05:03:14;;;;;;;13.52;9.40;;;7.00;99.90;;;;;;5075077;28;20215;-83
2020/12/18 05:05:41;;;;;;;12.93;9.60;;;7.20;99.90;;;;;;5075454;28;20601;-83
2020/12/18 05:08:07;;;;;;;14.70;10.32;;;7.10;99.90;;;;;;5077831;28;20213;-84
2020/12/18 05:10:34;;;;;;;16.67;10.05;;;6.80;99.90;;;;;;5088218;28;20212;-82
2020/12/18 05:13:00;;;;;;;13.60;10.60;;;6.70;99.90;;;;;;5086379;28;20267;-84
2020/12/18 05:15:27;;;;;;;18.77;10.82;;;6.80;99.90;;;;;;5078663;28;20206;-84
2020/12/18 05:17:56;;;;;;;13.50;10.23;;;6.70;99.90;;;;;;5076734;28;20206;-85
2020/12/18 05:20:24;;;;;;;16.73;11.82;;;6.70;99.90;;;;;;5078217;28;20206;-84
2020/12/18 05:22:52;;;;;;;13.80;10.40;;;6.70;99.90;;;;;;5079146;28;20228;-83
2020/12/18 05:25:19;;;;;;;14.27;11.05;;;6.90;99.90;;;;;;5082565;28;20258;-83
2020/12/18 05:27:46;;;;;;;16.05;11.48;;;7.10;99.90;;;;;;5089278;28;20267;-84
2020/12/18 05:30:13;;;;;;;13.25;10.55;;;6.80;99.90;;;;;;5091260;28;20205;-85
2020/12/18 05:32:39;;;;;;;16.23;11.70;;;6.90;99.90;;;;;;5092776;28;20190;-82
2020/12/18 05:35:07;;;;;;;13.02;10.38;;;6.70;99.90;;;;;;5093194;28;20231;-84
2020/12/18 05:37:37;;;;;;;14.40;10.80;;;7.00;99.90;;;;;;5094223;28;20210;-82
2020/12/18 05:40:05;;;;;;;13.93;9.63;;;7.10;99.90;;;;;;5089507;28;20257;-83
2020/12/18 05:42:41;;;;;;;15.85;10.52;;;7.00;99.90;;;;;;5091497;28;20194;-83
2020/12/18 05:45:12;;;;;;;14.85;10.60;;;7.40;99.90;;;;;;5092352;28;20259;-83
2020/12/18 05:47:57;;;;;;;18.50;10.30;;;7.30;99.90;;;;;;5091132;28;20453;-84
2020/12/18 05:50:29;;;;;;;16.00;11.35;;;7.30;99.90;;;;;;5085352;28;20201;-84
2020/12/18 05:52:57;;;;;;;17.15;11.50;;;7.40;99.90;;;;;;5078828;28;20643;-84
2020/12/18 05:55:24;;;;;;;12.98;10.35;;;7.20;99.90;;;;;;5075181;28;20217;-84
2020/12/18 05:57:52;;;;;;;17.60;10.48;;;7.20;99.90;;;;;;5076503;28;20232;-84
2020/12/18 06:00:20;;;;;;;15.57;11.55;;;7.20;99.90;;;;;;5073124;28;20209;-84
2020/12/18 06:02:55;;;;;;;14.63;11.07;;;7.10;99.90;;;;;;5082538;28;20259;-84
2020/12/18 06:05:23;;;;;;;15.48;10.85;;;7.00;99.90;;;;;;5083682;28;20250;-84
2020/12/18 06:07:52;;;;;;;15.50;12.07;;;7.10;99.90;;;;;;5072341;28;20217;-84
2020/12/18 06:10:22;;;;;;;17.42;11.98;;;7.00;99.90;;;;;;5074508;28;20197;-84
2020/12/18 06:12:49;;;;;;;15.02;10.90;;;7.10;99.90;;;;;;5081753;28;20213;-83
2020/12/18 06:15:18;;;;;;;21.73;13.50;;;7.20;99.90;;;;;;5082519;28;20198;-84
2020/12/18 06:17:46;;;;;;;16.10;11.93;;;7.00;99.90;;;;;;5073201;28;20212;-84
2020/12/18 06:20:15;;;;;;;13.98;11.02;;;6.90;99.90;;;;;;5073114;28;20206;-83
2020/12/18 06:22:56;;;;;;;16.77;12.60;;;6.80;99.90;;;;;;5072650;28;20197;-83
2020/12/18 06:25:23;;;;;;;18.23;11.88;;;7.00;99.90;;;;;;5072645;28;20217;-83
2020/12/18 06:27:58;;;;;;;18.65;13.15;;;7.10;99.90;;;;;;5072848;28;20214;-84
2020/12/18 06:30:25;;;;;;;16.20;13.38;;;7.20;99.90;;;;;;5078822;28;20237;-83
2020/12/18 06:33:06;;;;;;;21.65;12.10;;;7.00;99.90;;;;;;5078226;28;20205;-83
2020/12/18 06:35:34;;;;;;;18.88;12.20;;;6.80;99.90;;;;;;5076750;28;20601;-83
2020/12/18 06:38:26;;;;;;;15.38;11.80;;;6.90;99.90;;;;;;5066207;28;20202;-84
2020/12/18 06:40:53;;;;;;;14.45;10.73;;;7.00;99.90;;;;;;5077680;28;20286;-84
2020/12/18 06:43:34;;;;;;;19.58;12.20;;;7.10;99.90;;;;;;5078786;28;20206;-84
2020/12/18 06:46:06;;;;;;;15.05;10.63;;;7.10;99.90;;;;;;5074742;28;20229;-85
2020/12/18 06:48:32;;;;;;;15.25;10.60;;;7.20;99.90;;;;;;5076501;28;20259;-84
2020/12/18 06:50:59;;;;;;;14.20;9.57;;;7.30;99.90;;;;;;5077777;28;20350;-83
2020/12/18 06:53:26;;;;;;;14.25;10.45;;;7.20;99.90;;;;;;5077104;28;20198;-83
2020/12/18 06:55:53;;;;;;;15.30;10.60;;;7.30;99.90;;;;;;5073526;28;20223;-84
2020/12/18 06:58:23;;;;;;;13.88;9.95;;;7.20;99.90;;;;;;5063767;28;20199;-84
2020/12/18 07:03:42;;;;;;;17.42;10.73;;;7.20;99.90;;;;;;5057774;28;20207;-82
2020/12/18 07:06:12;;;;;;;13.10;10.45;;;7.20;99.90;;;;;;5059174;28;20303;-82
2020/12/18 07:08:41;;;;;;;19.30;10.95;;;7.20;99.90;;;;;;5058263;28;20229;-83
2020/12/18 07:11:10;;;;;;;15.02;11.18;;;7.30;99.90;;;;;;5058707;28;20682;-84
2020/12/18 07:13:40;;;;;;;14.93;9.70;;;7.40;99.90;;;;;;5059082;28;20194;-84
2020/12/18 07:16:09;;;;;;;16.17;11.00;;;7.10;99.90;;;;;;5058817;28;20230;-85
2020/12/18 07:18:38;;;;;;;15.35;10.35;;;7.20;99.90;;;;;;5060147;28;20214;-85
2020/12/18 07:21:06;;;;;;;14.60;10.70;;;7.10;99.90;;;;;;5061374;28;20214;-83
2020/12/18 07:23:35;;;;;;;14.38;11.23;;;7.10;99.90;;;;;;5058891;28;20301;-84
2020/12/18 07:26:03;;;;;;;16.25;11.20;;;7.40;99.90;;;;;;5058205;28;20230;-85
2020/12/18 07:28:31;;;;;;;13.45;10.35;;;7.40;99.90;;;;;;5058600;28;20198;-84
2020/12/18 07:31:00;;;;;;;15.05;10.52;;;7.50;99.90;;;;;;5058389;28;20696;-83
2020/12/18 07:33:27;;;;;;;15.48;10.95;;;7.30;99.90;;;;;;5059513;28;20210;-83
2020/12/18 07:35:55;;;;;;;18.35;9.55;;;7.40;99.90;;;;;;5057272;28;20357;-83
2020/12/18 07:38:26;;;;;;;13.27;10.60;;;7.50;99.90;;;;;;5055943;28;20199;-85
2020/12/18 07:41:00;;;;;;;13.50;10.05;;;7.60;99.90;;;;;;5057224;28;20198;-84
2020/12/18 07:43:29;;;;;;;13.63;10.98;;;7.50;99.90;;;;;;5064986;28;20204;-85
2020/12/18 07:45:58;;;;;;;14.20;9.88;;;7.50;99.90;;;;;;5056346;28;20287;-84
2020/12/18 07:48:28;;;;;;;23.20;12.32;;;7.50;99.90;;;;;;5059522;28;20289;-84
2020/12/18 07:50:59;;;;;;;13.32;10.10;;;7.40;99.90;;;;;;5068939;28;20245;-83
2020/12/18 07:53:26;;;;;;;17.17;11.52;;;7.40;99.90;;;;;;5068253;28;20198;-84
2020/12/18 07:56:10;;;;;;;15.48;11.75;;;7.50;99.90;;;;;;5065478;28;20242;-84
2020/12/18 07:58:48;;;;;;;12.68;10.35;;;7.50;99.90;;;;;;5062109;28;20213;-84
2020/12/18 08:01:17;;;;;;;14.30;10.57;;;7.60;99.90;;;;;;5064227;28;20229;-83
2020/12/18 08:03:47;;;;;;;17.20;11.55;;;7.80;99.90;;;;;;5058621;28;20222;-84
2020/12/18 08:06:17;;;;;;;14.15;10.95;;;7.50;99.90;;;;;;5064333;28;20235;-84
2020/12/18 08:08:49;;;;;;;16.02;10.35;;;7.90;99.90;;;;;;5057076;28;20226;-83
2020/12/18 08:11:18;;;;;;;14.02;10.82;;;7.70;99.90;;;;;;5055432;28;20214;-84
2020/12/18 08:13:45;;;;;;;24.05;15.93;;;7.80;99.90;;;;;;5059715;28;20191;-83
2020/12/18 08:16:15;;;;;;;17.25;10.98;;;7.90;99.90;;;;;;5062685;28;20364;-81
2020/12/18 08:18:47;;;;;;;15.32;10.90;;;7.90;99.90;;;;;;5056232;28;20214;-82
2020/12/18 08:21:13;;;;;;;14.05;10.60;;;7.80;99.90;;;;;;5056162;28;20208;-85
2020/12/18 08:23:46;;;;;;;17.52;10.75;;;7.80;99.90;;;;;;5055280;28;20226;-84
2020/12/18 08:26:14;;;;;;;24.80;11.45;;;8.00;99.90;;;;;;5055877;28;20234;-84
2020/12/18 08:28:43;;;;;;;19.65;11.65;;;8.10;99.90;;;;;;5055366;28;20268;-82
2020/12/18 08:31:13;;;;;;;16.45;10.82;;;8.10;99.90;;;;;;5057673;28;20239;-83
2020/12/18 08:33:50;;;;;;;15.05;11.10;;;8.20;99.90;;;;;;5056269;28;20610;-82
2020/12/18 08:36:17;;;;;;;17.88;11.75;;;8.20;99.90;;;;;;5057056;28;20611;-82
2020/12/18 08:38:59;;;;;;;17.17;11.77;;;8.20;99.90;;;;;;5061558;28;20286;-83
2020/12/18 08:41:25;;;;;;;16.55;11.98;;;8.50;99.90;;;;;;5057449;28;20206;-83
2020/12/18 08:44:07;;;;;;;17.17;12.38;;;8.50;99.90;;;;;;5057410;28;20652;-84
2020/12/18 08:46:36;;;;;;;18.42;12.25;;;8.50;99.90;;;;;;5059928;28;20249;-85
2020/12/18 08:49:11;;;;;;;14.90;11.05;;;8.70;99.90;;;;;;5059061;28;20235;-86
2020/12/18 08:51:38;;;;;;;17.38;10.73;;;8.80;99.90;;;;;;5061196;28;20210;-80
2020/12/18 08:54:30;;;;;;;20.42;11.80;;;8.80;99.90;;;;;;5066696;28;20205;-84
2020/12/18 08:57:23;;;;;;;19.70;11.52;;;8.60;99.90;;;;;;5069435;28;20222;-84
2020/12/18 09:00:10;;;;;;;16.40;11.38;;;8.70;99.90;;;;;;5066922;28;20323;-84
2020/12/18 09:02:40;;;;;;;14.93;10.90;;;8.90;99.90;;;;;;5066277;28;20214;-82
2020/12/18 09:05:17;;;;;;;24.27;12.27;;;8.90;99.90;;;;;;5067370;28;20252;-84
2020/12/18 09:07:48;;;;;;;18.98;12.23;;;9.00;99.90;;;;;;5063331;28;20221;-84
2020/12/18 09:10:35;;;;;;;15.90;11.30;;;8.80;99.90;;;;;;5063370;28;20206;-85
2020/12/18 09:13:18;;;;;;;14.07;10.70;;;9.20;99.90;;;;;;5061833;28;20207;-85
2020/12/18 09:15:47;;;;;;;20.70;10.38;;;9.20;99.90;;;;;;5039611;28;20625;-83
2020/12/18 09:18:16;;;;;;;17.95;12.27;;;9.30;99.90;;;;;;5058633;28;20232;-83
2020/12/18 09:20:48;;;;;;;19.00;11.27;;;9.50;99.90;;;;;;5061638;28;20206;-82
2020/12/18 09:23:17;;;;;;;16.05;11.40;;;9.40;99.90;;;;;;5067698;28;20206;-81
2020/12/18 09:25:49;;;;;;;25.02;13.40;;;9.20;99.90;;;;;;5069332;28;20240;-80
2020/12/18 09:28:20;;;;;;;20.77;11.95;;;9.10;99.90;;;;;;5069976;28;20263;-81
2020/12/18 09:30:49;;;;;;;20.45;12.02;;;9.40;99.90;;;;;;5071734;28;20178;-82
2020/12/18 09:33:26;;;;;;;28.85;12.57;;;9.40;99.90;;;;;;5071636;28;20217;-82
2020/12/18 09:35:55;;;;;;;16.35;11.07;;;9.50;99.90;;;;;;5072508;28;20236;-82
2020/12/18 09:38:23;;;;;;;17.70;11.95;;;9.30;99.90;;;;;;5068646;28;20202;-84
2020/12/18 09:40:50;;;;;;;22.20;13.40;;;9.30;99.90;;;;;;5066076;28;20202;-85
2020/12/18 09:43:20;;;;;;;16.50;11.70;;;9.40;99.90;;;;;;5058629;28;20460;-83
2020/12/18 09:45:55;;;;;;;15.35;12.00;;;9.40;99.90;;;;;;5063581;28;20940;-84
2020/12/18 09:48:25;;;;;;;16.35;10.75;;;9.70;99.90;;;;;;5069790;28;20220;-83
2020/12/18 09:50:55;;;;;;;19.53;11.77;;;9.30;99.90;;;;;;5059713;28;20213;-85
2020/12/18 09:53:22;;;;;;;16.40;10.27;;;9.60;99.90;;;;;;5057942;28;20498;-84
2020/12/18 09:55:49;;;;;;;18.50;11.93;;;9.70;99.90;;;;;;5058520;28;20234;-85
2020/12/18 09:58:16;;;;;;;18.95;11.02;;;9.70;99.90;;;;;;5055746;28;20217;-85
2020/12/18 10:00:42;;;;;;;16.95;11.60;;;9.80;99.90;;;;;;5057704;28;20691;-82
2020/12/18 10:03:12;;;;;;;17.83;10.88;;;9.80;99.90;;;;;;5060291;28;20277;-82
2020/12/18 10:05:39;;;;;;;20.73;12.27;;;9.90;99.90;;;;;;5061245;28;20292;-82
2020/12/18 10:08:06;;;;;;;15.38;10.70;;;9.90;99.90;;;;;;5062219;28;20746;-79
2020/12/18 10:10:33;;;;;;;16.73;11.85;;;9.70;99.90;;;;;;5069375;28;20205;-81
2020/12/18 10:13:00;;;;;;;13.60;11.07;;;9.60;99.90;;;;;;5060946;28;20291;-79
2020/12/18 10:15:27;;;;;;;14.90;11.57;;;9.90;99.90;;;;;;5059074;28;20491;-81
2020/12/18 10:17:54;;;;;;;16.80;11.93;;;9.90;99.90;;;;;;5062083;28;20543;-82
2020/12/18 10:20:20;;;;;;;26.45;11.90;;;10.00;99.90;;;;;;5058548;28;20732;-80
2020/12/18 10:22:48;;;;;;;19.60;11.07;;;10.00;99.90;;;;;;5060306;28;20705;-79
2020/12/18 10:25:15;;;;;;;18.70;10.83;;;10.20;99.90;;;;;;5057219;28;20987;-82
2020/12/18 10:27:43;;;;;;;15.43;12.10;;;10.20;99.90;;;;;;5059370;28;20452;-81
2020/12/18 10:30:10;;;;;;;15.33;11.90;;;10.20;99.90;;;;;;5061706;28;20460;-87
2020/12/18 10:32:36;;;;;;;19.40;11.47;;;10.20;99.90;;;;;;5065696;28;20428;-82
2020/12/18 10:35:04;;;;;;;17.33;10.40;;;10.40;99.90;;;;;;5059467;28;20449;-82
2020/12/18 10:37:30;;;;;;;17.43;11.60;;;10.50;99.90;;;;;;5059180;28;20515;-81
2020/12/18 10:39:58;;;;;;;15.70;11.20;;;10.60;99.90;;;;;;5059120;28;20449;-82
2020/12/18 10:42:25;;;;;;;17.73;13.53;;;10.70;99.90;;;;;;5059621;28;20526;-82
2020/12/18 10:44:51;;;;;;;19.10;12.00;;;10.80;99.90;;;;;;5057010;28;20586;-75
2020/12/18 10:47:18;;;;;;;21.20;12.83;;;10.70;99.90;;;;;;5051882;28;20483;-76
2020/12/18 10:49:45;;;;;;;16.60;11.27;;;10.70;99.90;;;;;;5051785;28;20453;-76
2020/12/18 10:52:11;;;;;;;22.30;13.13;;;10.60;99.90;;;;;;5055837;28;20575;-79
2020/12/18 10:54:38;;;;;;;20.37;13.20;;;10.50;99.90;;;;;;5061160;28;20244;-76
2020/12/18 10:57:05;;;;;;;18.93;14.60;;;10.50;99.90;;;;;;5059761;28;20575;-77
2020/12/18 10:59:33;;;;;;;17.43;12.60;;;10.60;99.90;;;;;;5056043;28;20456;-78
2020/12/18 11:02:02;;;;;;;20.80;12.17;;;10.70;99.90;;;;;;5058098;28;20875;-79
2020/12/18 11:04:29;;;;;;;14.33;11.50;;;10.70;99.90;;;;;;5055629;28;21045;-77
2020/12/18 11:06:55;;;;;;;17.53;13.00;;;10.80;99.90;;;;;;5053778;28;20472;-77
2020/12/18 11:09:22;;;;;;;14.37;11.20;;;10.90;99.90;;;;;;5057621;28;20955;-82
2020/12/18 11:11:52;;;;;;;18.57;12.40;;;10.90;99.90;;;;;;5057539;28;20461;-85
2020/12/18 11:14:20;;;;;;;21.03;11.67;;;10.90;99.90;;;;;;5061424;28;20452;-78
2020/12/18 11:16:47;;;;;;;15.57;12.80;;;11.10;99.90;;;;;;5056949;28;20472;-79
2020/12/18 11:19:15;;;;;;;15.90;12.00;;;10.90;99.90;;;;;;5053324;28;20424;-83
2020/12/18 11:21:46;;;;;;;15.60;12.00;;;10.90;99.90;;;;;;5060786;28;20452;-77
2020/12/18 11:24:12;;;;;;;22.37;12.80;;;10.90;99.90;;;;;;5057700;28;20484;-84
2020/12/18 11:26:39;;;;;;;17.00;13.13;;;11.00;99.90;;;;;;5054660;28;20488;-83
2020/12/18 11:29:07;;;;;;;17.50;11.97;;;10.90;99.90;;;;;;5057957;28;20861;-85
2020/12/18 11:31:39;;;;;;;17.50;12.00;;;10.80;99.90;;;;;;5057529;28;20530;-83
2020/12/18 11:34:06;;;;;;;18.43;13.30;;;10.80;99.90;;;;;;5058402;28;20499;-79
2020/12/18 11:36:33;;;;;;;17.27;12.30;;;10.70;99.90;;;;;;5063422;28;20502;-84
2020/12/18 11:39:04;;;;;;;18.30;13.00;;;10.80;99.90;;;;;;5062945;28;20217;-82
2020/12/18 11:41:31;;;;;;;16.47;12.60;;;10.90;99.90;;;;;;5056914;28;20547;-78
2020/12/18 11:43:57;;;;;;;17.50;13.57;;;11.00;99.90;;;;;;5063324;28;20511;-81
2020/12/18 11:46:26;;;;;;;19.13;13.40;;;11.00;99.90;;;;;;5063028;28;21004;-81
2020/12/18 11:48:54;;;;;;;20.33;13.27;;;10.90;99.90;;;;;;5061407;28;20471;-82
2020/12/18 11:51:33;;;;;;;21.13;11.63;;;11.10;99.90;;;;;;5065300;28;20482;-82
2020/12/18 11:54:00;;;;;;;18.60;12.67;;;11.20;99.90;;;;;;5065461;28;20445;-84
2020/12/18 11:56:27;;;;;;;15.53;11.40;;;11.20;99.90;;;;;;5062450;28;20477;-83
2020/12/18 11:58:54;;;;;;;16.40;12.53;;;11.40;99.90;;;;;;5061255;28;20453;-80
2020/12/18 12:01:24;;;;;;;15.83;12.30;;;11.60;99.90;;;;;;5057420;28;20453;-79
2020/12/18 12:03:53;;;;;;;13.80;10.13;;;11.60;99.90;;;;;;5056808;28;20441;-82
2020/12/18 12:06:21;;;;;;;13.63;10.30;;;11.80;99.90;;;;;;5061402;28;20469;-81
2020/12/18 12:08:50;;;;;;;12.40;8.73;;;11.90;99.90;;;;;;5060969;28;20951;-82
2020/12/18 12:11:16;;;;;;;10.90;8.40;;;11.90;99.90;;;;;;5047918;28;20565;-81
2020/12/18 12:13:43;;;;;;;10.80;7.90;;;12.00;99.90;;;;;;5054772;28;20546;-82
2020/12/18 12:16:11;;;;;;;14.17;8.50;;;12.00;99.90;;;;;;5059239;28;20526;-82
2020/12/18 12:21:33;;;;;;;13.17;8.37;;;12.20;99.90;;;;;;5057752;28;20452;-81
2020/12/18 12:23:59;;;;;;;9.00;7.53;;;12.10;99.90;;;;;;5058252;28;20978;-82
2020/12/18 12:26:26;;;;;;;11.53;9.00;;;12.10;99.90;;;;;;5058303;28;20472;-82
2020/12/18 12:28:53;;;;;;;11.80;7.97;;;12.20;99.90;;;;;;5060438;28;20541;-82
2020/12/18 12:31:20;;;;;;;11.03;8.43;;;12.30;99.90;;;;;;5067012;28;20457;-82
2020/12/18 12:33:46;;;;;;;10.43;8.37;;;12.40;99.90;;;;;;5061314;28;20481;-83
2020/12/18 12:36:18;;;;;;;9.80;8.20;;;12.40;99.90;;;;;;5059805;28;20459;-82
2020/12/18 12:38:45;;;;;;;12.50;9.47;;;12.40;99.90;;;;;;5057917;28;20408;-82
2020/12/18 12:41:12;;;;;;;8.60;7.37;;;12.50;99.90;;;;;;5040771;28;20446;-83
2020/12/18 12:43:39;;;;;;;14.93;9.50;;;12.50;99.90;;;;;;5048543;28;20460;-83
2020/12/18 12:46:05;;;;;;;11.40;8.60;;;12.60;99.90;;;;;;5059473;28;20465;-82
2020/12/18 12:48:32;;;;;;;10.03;8.17;;;12.60;99.90;;;;;;5061500;28;20492;-82
2020/12/18 12:51:05;;;;;;;12.90;8.87;;;12.60;99.90;;;;;;5049768;28;20460;-82